Time;durP1;ratioP1;P1;durP2;ratioP2;P2;SDS_P1;SDS_P2;PMS_P1;PMS_P2;Temp;Humidity;BMP_temperature;BMP_pressure;BME280_temperature;BME280_humidity;BME280_pressure;Samples;Min_cycle;Max_cycle;Signal;HPM_P1;HPM_P2
2022/03/02 00:00:28;;;;;;;;;;;1.10;99.90;;;;;;4952879;28;19930;-77
2022/03/02 00:02:56;;;;;;;;;;;1.10;99.90;;;;;;4950872;28;20473;-77
2022/03/02 00:05:24;;;;;;;;;;;1.10;99.90;;;;;;4943492;29;19986;-78
2022/03/02 00:07:51;;;;;;;;;;;1.00;99.90;;;;;;4936289;29;19926;-77
2022/03/02 00:10:18;;;;;;;;;;;1.00;99.90;;;;;;4951457;28;20014;-77
2022/03/02 00:12:45;;;;;;;;;;;1.00;99.90;;;;;;4947385;28;19927;-78
2022/03/02 00:15:12;;;;;;;;;;;1.00;99.90;;;;;;4950590;28;19927;-78
2022/03/02 00:17:38;;;;;;;;;;;1.00;99.90;;;;;;4957128;28;19933;-78
2022/03/02 00:20:07;;;;;;;;;;;1.10;99.90;;;;;;4934462;29;19926;-77
2022/03/02 00:22:34;;;;;;;;;;;1.00;99.90;;;;;;4952367;28;19933;-78
2022/03/02 00:25:01;;;;;;;;;;;1.00;99.90;;;;;;4943142;29;20329;-78
2022/03/02 00:27:29;;;;;;;;;;;1.00;99.90;;;;;;4954340;28;20351;-77
2022/03/02 00:29:56;;;;;;;;;;;0.90;99.90;;;;;;4950746;28;20325;-77
2022/03/02 00:32:25;;;;;;;;;;;0.90;99.90;;;;;;4951170;28;19934;-77
2022/03/02 00:34:52;;;;;;;;;;;0.90;99.90;;;;;;4952838;29;19930;-77
2022/03/02 00:37:20;;;;;;;;;;;0.90;99.90;;;;;;4948260;28;19933;-77
2022/03/02 00:39:47;;;;;;;;;;;0.90;99.90;;;;;;4956565;28;19926;-77
2022/03/02 00:42:14;;;;;;;;;;;0.90;99.90;;;;;;4951937;28;20025;-77
2022/03/02 00:44:41;;;;;;;;;;;0.90;99.90;;;;;;4957090;28;19927;-77
2022/03/02 00:47:08;;;;;;;;;;;0.90;99.90;;;;;;4948784;28;20393;-78
2022/03/02 00:49:35;;;;;;;;;;;0.80;99.90;;;;;;4953565;28;19933;-78
2022/03/02 00:52:03;;;;;;;;;;;0.80;99.90;;;;;;4956749;28;19981;-77
2022/03/02 00:54:31;;;;;;;;;;;0.80;99.90;;;;;;4957262;28;19933;-77
2022/03/02 00:56:58;;;;;;;;;;;0.80;99.90;;;;;;4937785;29;19962;-78
2022/03/02 00:59:25;;;;;;;;;;;0.80;99.90;;;;;;4956164;28;20412;-78
2022/03/02 01:01:52;;;;;;;;;;;0.90;99.90;;;;;;4952444;28;19958;-78
2022/03/02 01:04:19;;;;;;;;;;;0.80;99.90;;;;;;4953909;28;20021;-77
2022/03/02 01:06:46;;;;;;;;;;;0.80;99.90;;;;;;4949059;28;19926;-77
2022/03/02 01:09:13;;;;;;;;;;;0.80;99.90;;;;;;4955899;28;19981;-77
2022/03/02 01:11:41;;;;;;;;;;;0.70;99.90;;;;;;4950381;28;20394;-77
2022/03/02 01:14:08;;;;;;;;;;;0.70;99.90;;;;;;4953029;28;20411;-77
2022/03/02 01:16:35;;;;;;;;;;;0.70;99.90;;;;;;4957276;28;19934;-77
2022/03/02 01:19:03;;;;;;;;;;;0.70;99.90;;;;;;4955817;28;19926;-77
2022/03/02 01:21:31;;;;;;;;;;;0.70;99.90;;;;;;4944827;28;20317;-77
2022/03/02 01:23:59;;;;;;;;;;;0.70;99.90;;;;;;4950674;28;19958;-77
2022/03/02 01:26:26;;;;;;;;;;;0.70;99.90;;;;;;4955753;28;19934;-77
2022/03/02 01:28:54;;;;;;;;;;;0.60;99.90;;;;;;4951251;28;20044;-77
2022/03/02 01:31:22;;;;;;;;;;;0.60;99.90;;;;;;4955491;28;19930;-77
2022/03/02 01:33:50;;;;;;;;;;;0.60;99.90;;;;;;4955927;28;19926;-77
2022/03/02 01:36:17;;;;;;;;;;;0.60;99.90;;;;;;4955540;28;19931;-77
2022/03/02 01:38:44;;;;;;;;;;;0.60;99.90;;;;;;4954420;29;19933;-77
2022/03/02 01:41:13;;;;;;;;;;;0.60;99.90;;;;;;4954455;28;20017;-77
2022/03/02 01:43:40;;;;;;;;;;;0.50;99.90;;;;;;4949108;28;19926;-77
2022/03/02 01:46:09;;;;;;;;;;;0.50;99.90;;;;;;4945097;29;19926;-77
2022/03/02 01:48:36;;;;;;;;;;;0.50;99.90;;;;;;4956060;28;19926;-78
2022/03/02 01:51:03;;;;;;;;;;;0.50;99.90;;;;;;4954969;28;19934;-78
2022/03/02 01:53:30;;;;;;;;;;;0.50;99.90;;;;;;4949923;29;19927;-77
2022/03/02 01:55:57;;;;;;;;;;;0.50;99.90;;;;;;4955980;28;20014;-78
2022/03/02 01:58:24;;;;;;;;;;;0.50;99.90;;;;;;4959011;28;20783;-78
2022/03/02 02:00:51;;;;;;;;;;;0.50;99.90;;;;;;4953610;28;20341;-77
2022/03/02 02:03:20;;;;;;;;;;;0.50;99.90;;;;;;4955702;28;19927;-77
2022/03/02 02:05:47;;;;;;;;;;;0.50;99.90;;;;;;4955025;28;19934;-77
2022/03/02 02:08:14;;;;;;;;;;;0.40;99.90;;;;;;4955460;28;20037;-77
2022/03/02 02:10:41;;;;;;;;;;;0.40;99.90;;;;;;4961464;28;19937;-77
2022/03/02 02:13:08;;;;;;;;;;;0.40;99.90;;;;;;4953490;28;20301;-77
2022/03/02 02:15:34;;;;;;;;;;;0.40;99.90;;;;;;4955187;28;20438;-77
2022/03/02 02:18:01;;;;;;;;;;;0.40;99.90;;;;;;4953000;28;19946;-77
2022/03/02 02:20:30;;;;;;;;;;;0.30;99.90;;;;;;4958466;28;19932;-77
2022/03/02 02:22:58;;;;;;;;;;;0.30;99.90;;;;;;4939716;29;19951;-77
2022/03/02 02:25:25;;;;;;;;;;;0.30;99.90;;;;;;4958181;28;19930;-77
2022/03/02 02:27:53;;;;;;;;;;;0.30;99.90;;;;;;4957405;28;19949;-77
2022/03/02 02:30:21;;;;;;;;;;;0.30;99.90;;;;;;4953343;28;20043;-77
2022/03/02 02:32:48;;;;;;;;;;;0.30;99.90;;;;;;4954013;28;19933;-77
2022/03/02 02:35:15;;;;;;;;;;;0.40;99.90;;;;;;4953393;28;19957;-77
2022/03/02 02:37:42;;;;;;;;;;;0.30;99.90;;;;;;4954198;28;19931;-77
2022/03/02 02:40:11;;;;;;;;;;;0.30;99.90;;;;;;4953025;28;19981;-77
2022/03/02 02:42:39;;;;;;;;;;;0.30;99.90;;;;;;4946947;29;19997;-77
2022/03/02 02:45:07;;;;;;;;;;;0.30;99.90;;;;;;4952545;28;19930;-77
2022/03/02 02:47:34;;;;;;;;;;;0.30;99.90;;;;;;4951318;28;20021;-77
2022/03/02 02:50:00;;;;;;;;;;;0.20;99.90;;;;;;4938365;28;19933;-78
2022/03/02 02:52:27;;;;;;;;;;;0.30;99.90;;;;;;4950748;28;19927;-77
2022/03/02 02:54:54;;;;;;;;;;;0.30;99.90;;;;;;4945189;28;19930;-77
2022/03/02 02:57:22;;;;;;;;;;;0.20;99.90;;;;;;4941790;29;19933;-77
2022/03/02 02:59:50;;;;;;;;;;;0.20;99.90;;;;;;4953727;28;20524;-78
2022/03/02 03:02:16;;;;;;;;;;;0.10;99.90;;;;;;4948760;28;19926;-77
2022/03/02 03:04:44;;;;;;;;;;;0.20;99.90;;;;;;4953017;28;20328;-78
2022/03/02 03:07:11;;;;;;;;;;;0.20;99.90;;;;;;4942632;29;20311;-77
2022/03/02 03:09:38;;;;;;;;;;;0.20;99.90;;;;;;4944114;28;20375;-77
2022/03/02 03:12:05;;;;;;;;;;;0.10;99.90;;;;;;4949019;28;19932;-77
2022/03/02 03:14:34;;;;;;;;;;;0.10;99.90;;;;;;4958414;28;19927;-77
2022/03/02 03:17:00;;;;;;;;;;;0.20;99.90;;;;;;4954192;28;19927;-77
2022/03/02 03:19:27;;;;;;;;;;;0.20;99.90;;;;;;4946423;28;19981;-77
2022/03/02 03:21:54;;;;;;;;;;;0.20;99.90;;;;;;4951537;28;20431;-77
2022/03/02 03:24:21;;;;;;;;;;;0.20;99.90;;;;;;4954101;28;20376;-77
2022/03/02 03:26:48;;;;;;;;;;;0.20;99.90;;;;;;4936166;29;19927;-77
2022/03/02 03:29:15;;;;;;;;;;;0.10;99.90;;;;;;4949237;28;19942;-77
2022/03/02 03:31:43;;;;;;;;;;;0.10;99.90;;;;;;4953569;28;20404;-77
2022/03/02 03:34:10;;;;;;;;;;;0.10;99.90;;;;;;4954292;28;19934;-77
2022/03/02 03:36:38;;;;;;;;;;;0.10;99.90;;;;;;4950151;28;19927;-77
2022/03/02 03:39:05;;;;;;;;;;;0.10;99.90;;;;;;4948078;28;19941;-77
2022/03/02 03:41:31;;;;;;;;;;;0.10;99.90;;;;;;4954872;28;19930;-77
2022/03/02 03:43:58;;;;;;;;;;;0.10;99.90;;;;;;4952708;28;19927;-77
2022/03/02 03:46:25;;;;;;;;;;;0.10;99.90;;;;;;4949200;28;20025;-77
2022/03/02 03:48:53;;;;;;;;;;;0.00;99.90;;;;;;4951946;28;19953;-77
2022/03/02 03:51:20;;;;;;;;;;;0.00;99.90;;;;;;4955096;28;19933;-77
2022/03/02 03:53:47;;;;;;;;;;;-0.10;99.90;;;;;;4956095;28;19927;-77
2022/03/02 03:56:14;;;;;;;;;;;-0.10;99.90;;;;;;4951979;28;19926;-77
2022/03/02 03:58:41;;;;;;;;;;;-0.10;99.90;;;;;;4947688;28;19926;-77
2022/03/02 04:01:08;;;;;;;;;;;-0.10;99.90;;;;;;4952654;28;19934;-77
2022/03/02 04:03:37;;;;;;;;;;;-0.10;99.90;;;;;;4951170;28;20421;-77
2022/03/02 04:06:06;;;;;;;;;;;-0.10;99.90;;;;;;4951379;28;19974;-77
2022/03/02 04:08:33;;;;;;;;;;;-0.10;99.90;;;;;;4940212;28;19930;-77
2022/03/02 04:11:00;;;;;;;;;;;-0.10;99.90;;;;;;4935717;29;21130;-77
2022/03/02 04:13:27;;;;;;;;;;;-0.10;99.90;;;;;;4946467;28;20499;-77
2022/03/02 04:15:53;;;;;;;;;;;-0.10;99.90;;;;;;4957090;28;19931;-77
2022/03/02 04:18:20;;;;;;;;;;;-0.20;99.90;;;;;;4952559;28;19934;-77
2022/03/02 04:20:47;;;;;;;;;;;-0.10;99.90;;;;;;4952943;28;19935;-77
2022/03/02 04:23:16;;;;;;;;;;;-0.10;99.90;;;;;;4952051;28;19926;-77
2022/03/02 04:25:43;;;;;;;;;;;-0.20;99.90;;;;;;4952986;28;19927;-77
2022/03/02 04:28:10;;;;;;;;;;;-0.20;99.90;;;;;;4936737;29;19926;-77
2022/03/02 04:30:37;;;;;;;;;;;-0.20;99.90;;;;;;4951230;28;20411;-78
2022/03/02 04:33:04;;;;;;;;;;;-0.20;99.90;;;;;;4952078;28;19949;-77
2022/03/02 04:35:31;;;;;;;;;;;-0.20;99.90;;;;;;4954372;28;19933;-77
2022/03/02 04:37:58;;;;;;;;;;;-0.20;99.90;;;;;;4957199;28;19927;-77
2022/03/02 04:40:26;;;;;;;;;;;-0.20;99.90;;;;;;4949722;28;19949;-77
2022/03/02 04:42:54;;;;;;;;;;;-0.20;99.90;;;;;;4945221;28;19926;-77
2022/03/02 04:45:21;;;;;;;;;;;-0.20;99.90;;;;;;4952113;28;20008;-77
2022/03/02 04:47:48;;;;;;;;;;;-0.20;99.90;;;;;;4954643;28;20012;-77
2022/03/02 04:50:16;;;;;;;;;;;-0.30;99.90;;;;;;4952777;28;19934;-77
2022/03/02 04:52:43;;;;;;;;;;;-0.20;99.90;;;;;;4952745;28;19938;-77
2022/03/02 04:55:11;;;;;;;;;;;-0.20;99.90;;;;;;4942398;29;20041;-77
2022/03/02 04:57:40;;;;;;;;;;;-0.20;99.90;;;;;;4950741;28;19986;-77
2022/03/02 05:00:09;;;;;;;;;;;-0.20;99.90;;;;;;4950645;28;19938;-77
2022/03/02 05:02:37;;;;;;;;;;;-0.30;99.90;;;;;;4952432;28;19958;-77
2022/03/02 05:05:04;;;;;;;;;;;-0.30;99.90;;;;;;4950782;28;19934;-77
2022/03/02 05:07:31;;;;;;;;;;;-0.30;99.90;;;;;;4954798;28;19954;-77
2022/03/02 05:09:58;;;;;;;;;;;-0.30;99.90;;;;;;4952654;28;19989;-77
2022/03/02 05:12:25;;;;;;;;;;;-0.20;99.90;;;;;;4950681;29;19927;-77
2022/03/02 05:14:53;;;;;;;;;;;-0.20;99.90;;;;;;4952534;28;19933;-77
2022/03/02 05:17:20;;;;;;;;;;;-0.30;99.90;;;;;;4954944;28;19926;-77
2022/03/02 05:19:47;;;;;;;;;;;-0.20;99.90;;;;;;4951782;28;19995;-77
2022/03/02 05:22:14;;;;;;;;;;;-0.20;99.90;;;;;;4950636;28;19998;-77
2022/03/02 05:24:41;;;;;;;;;;;-0.30;99.90;;;;;;4935615;29;20025;-77
2022/03/02 05:27:08;;;;;;;;;;;-0.30;99.90;;;;;;4955679;28;19930;-77
2022/03/02 05:29:35;;;;;;;;;;;-0.30;99.90;;;;;;4939422;28;19991;-77
2022/03/02 05:32:03;;;;;;;;;;;-0.30;99.90;;;;;;4950352;28;20009;-77
2022/03/02 05:34:30;;;;;;;;;;;-0.40;99.90;;;;;;4951599;29;19993;-77
2022/03/02 05:36:57;;;;;;;;;;;-0.40;99.90;;;;;;4958040;28;19936;-77
2022/03/02 05:39:24;;;;;;;;;;;-0.40;99.90;;;;;;4947371;28;19950;-77
2022/03/02 05:41:51;;;;;;;;;;;-0.40;99.90;;;;;;4950859;28;19974;-78
2022/03/02 05:44:19;;;;;;;;;;;-0.40;99.90;;;;;;4954948;28;20407;-77
2022/03/02 05:46:45;;;;;;;;;;;-0.40;99.90;;;;;;4960489;28;20083;-76
2022/03/02 05:49:14;;;;;;;;;;;-0.40;99.90;;;;;;4955424;28;20019;-77
2022/03/02 05:51:41;;;;;;;;;;;-0.40;99.90;;;;;;4935052;28;19926;-77
2022/03/02 05:54:09;;;;;;;;;;;-0.40;99.90;;;;;;4952185;28;19926;-77
2022/03/02 05:56:37;;;;;;;;;;;-0.40;99.90;;;;;;4951477;28;20332;-77
2022/03/02 05:59:04;;;;;;;;;;;-0.40;99.90;;;;;;4948010;28;20021;-77
2022/03/02 06:01:31;;;;;;;;;;;-0.40;99.90;;;;;;4955603;28;19933;-77
2022/03/02 06:03:58;;;;;;;;;;;-0.40;99.90;;;;;;4942485;29;20025;-77
2022/03/02 06:06:26;;;;;;;;;;;-0.40;99.90;;;;;;4957882;28;19929;-77
2022/03/02 06:08:53;;;;;;;;;;;-0.40;99.90;;;;;;4952168;28;20345;-77
2022/03/02 06:11:20;;;;;;;;;;;-0.50;99.90;;;;;;4953891;28;19926;-77
2022/03/02 06:13:47;;;;;;;;;;;-0.50;99.90;;;;;;4954319;28;20306;-77
2022/03/02 06:16:15;;;;;;;;;;;-0.50;99.90;;;;;;4961700;28;19934;-77
2022/03/02 06:18:42;;;;;;;;;;;-0.60;99.90;;;;;;4958369;28;20009;-77
2022/03/02 06:21:09;;;;;;;;;;;-0.60;99.90;;;;;;4954503;28;20001;-77
2022/03/02 06:23:37;;;;;;;;;;;-0.60;99.90;;;;;;4953595;28;19926;-77
2022/03/02 06:26:04;;;;;;;;;;;-0.50;99.90;;;;;;4956862;28;19926;-77
2022/03/02 06:28:31;;;;;;;;;;;-0.60;99.90;;;;;;4955384;28;20041;-77
2022/03/02 06:30:58;;;;;;;;;;;-0.60;99.90;;;;;;4957343;28;19931;-77
2022/03/02 06:33:25;;;;;;;;;;;-0.60;99.90;;;;;;4949188;29;19985;-77
2022/03/02 06:35:52;;;;;;;;;;;-0.60;99.90;;;;;;4955234;28;19927;-77
2022/03/02 06:38:19;;;;;;;;;;;-0.60;99.90;;;;;;4955048;28;19982;-76
2022/03/02 06:40:56;;;;;;;;;;;-0.60;99.90;;;;;;4943568;28;19937;-78
2022/03/02 06:43:23;;;;;;;;;;;-0.60;99.90;;;;;;4948646;29;19926;-77
2022/03/02 06:45:54;;;;;;;;;;;-0.60;99.90;;;;;;4955576;28;19938;-77
2022/03/02 06:48:22;;;;;;;;;;;-0.60;99.90;;;;;;4947511;29;20577;-77
2022/03/02 06:50:51;;;;;;;;;;;-0.60;99.90;;;;;;4953481;28;20312;-77
2022/03/02 06:53:22;;;;;;;;;;;-0.70;99.90;;;;;;4946937;29;19930;-77
2022/03/02 06:55:49;;;;;;;;;;;-0.70;99.90;;;;;;4955827;28;19933;-77
2022/03/02 06:58:19;;;;;;;;;;;-0.70;99.90;;;;;;4954472;28;19935;-77
2022/03/02 07:00:50;;;;;;;;;;;-0.70;99.90;;;;;;4951738;28;19927;-78
2022/03/02 07:03:18;;;;;;;;;;;-0.70;99.90;;;;;;4943005;28;19934;-77
2022/03/02 07:05:46;;;;;;;;;;;-0.70;99.90;;;;;;4954580;28;19945;-77
2022/03/02 07:08:13;;;;;;;;;;;-0.70;99.90;;;;;;4954684;28;20345;-77
2022/03/02 07:10:40;;;;;;;;;;;-0.80;99.90;;;;;;4957433;28;19926;-77
2022/03/02 07:13:07;;;;;;;;;;;-0.80;99.90;;;;;;4958247;28;19926;-77
2022/03/02 07:15:38;;;;;;;;;;;-0.80;99.90;;;;;;4945260;29;20005;-77
2022/03/02 07:18:07;;;;;;;;;;;-0.80;99.90;;;;;;4935708;29;19933;-77
2022/03/02 07:20:37;;;;;;;;;;;-0.80;99.90;;;;;;4954811;28;19926;-77
2022/03/02 07:23:05;;;;;;;;;;;-0.80;99.90;;;;;;4940998;29;19933;-77
2022/03/02 07:25:35;;;;;;;;;;;-0.80;99.90;;;;;;4956944;28;19942;-77
2022/03/02 07:28:03;;;;;;;;;;;-0.80;99.90;;;;;;4958983;28;20040;-77
2022/03/02 07:30:30;;;;;;;;;;;-0.80;99.90;;;;;;4954687;28;20016;-77
2022/03/02 07:33:01;;;;;;;;;;;-0.90;99.90;;;;;;4959779;28;19937;-78
2022/03/02 07:35:31;;;;;;;;;;;-0.90;99.90;;;;;;4946595;28;19934;-77
2022/03/02 07:37:59;;;;;;;;;;;-0.80;99.90;;;;;;4956181;28;19934;-77
2022/03/02 07:40:26;;;;;;;;;;;-0.90;99.90;;;;;;4953847;28;19932;-77
2022/03/02 07:42:53;;;;;;;;;;;-0.80;99.90;;;;;;4942866;29;19945;-77
2022/03/02 07:45:20;;;;;;;;;;;-0.80;99.90;;;;;;4932970;29;20363;-77
2022/03/02 07:47:48;;;;;;;;;;;-0.90;99.90;;;;;;4956336;28;20018;-77
2022/03/02 07:50:16;;;;;;;;;;;-0.80;99.90;;;;;;4954092;28;19926;-77
2022/03/02 07:52:47;;;;;;;;;;;-0.80;99.90;;;;;;4940431;28;19946;-77
2022/03/02 07:55:15;;;;;;;;;;;-0.80;99.90;;;;;;4954022;28;19926;-78
2022/03/02 07:57:42;;;;;;;;;;;-0.80;99.90;;;;;;4953796;28;20389;-78
2022/03/02 08:00:11;;;;;;;;;;;-0.80;99.90;;;;;;4952881;28;19985;-78
2022/03/02 08:02:40;;;;;;;;;;;-0.80;99.90;;;;;;4956465;28;19930;-77
2022/03/02 08:05:07;;;;;;;;;;;-0.80;99.90;;;;;;4955127;28;19934;-77
2022/03/02 08:07:35;;;;;;;;;;;-0.80;99.90;;;;;;4954807;28;20057;-77
2022/03/02 08:10:03;;;;;;;;;;;-0.80;99.90;;;;;;4950012;28;19933;-77
2022/03/02 08:12:30;;;;;;;;;;;-0.80;99.90;;;;;;4954812;28;19942;-77
2022/03/02 08:14:57;;;;;;;;;;;-0.80;99.90;;;;;;4936405;29;19930;-77
2022/03/02 08:17:24;;;;;;;;;;;-0.80;99.90;;;;;;4943297;28;19926;-77
2022/03/02 08:19:51;;;;;;;;;;;-0.80;99.90;;;;;;4955020;28;20022;-77
2022/03/02 08:22:19;;;;;;;;;;;-0.80;99.90;;;;;;4936673;28;19931;-77
2022/03/02 08:24:51;;;;;;;;;;;-0.70;99.90;;;;;;4953221;28;20312;-78
2022/03/02 08:27:19;;;;;;;;;;;-0.70;99.90;;;;;;4962114;28;19930;-78
2022/03/02 08:29:52;;;;;;;;;;;-0.70;99.90;;;;;;4953509;28;19934;-77
2022/03/02 08:32:20;;;;;;;;;;;-0.70;99.90;;;;;;4952730;28;20103;-78
2022/03/02 08:34:47;;;;;;;;;;;-0.70;99.90;;;;;;4953277;28;19934;-77
2022/03/02 08:37:17;;;;;;;;;;;-0.70;99.90;;;;;;4954354;28;19933;-77
2022/03/02 08:39:44;;;;;;;;;;;-0.70;99.90;;;;;;4952900;28;19927;-77
2022/03/02 08:42:12;;;;;;;;;;;-0.60;99.90;;;;;;4952618;28;20021;-77
2022/03/02 08:44:39;;;;;;;;;;;-0.60;99.90;;;;;;4951230;28;19926;-78
2022/03/02 08:47:07;;;;;;;;;;;-0.60;99.90;;;;;;4938652;29;19969;-77
2022/03/02 08:49:34;;;;;;;;;;;-0.60;99.90;;;;;;4953518;28;20021;-77
2022/03/02 08:52:02;;;;;;;;;;;-0.50;99.90;;;;;;4961214;28;20387;-78
2022/03/02 08:54:31;;;;;;;;;;;-0.50;99.90;;;;;;4943131;28;20410;-77
2022/03/02 08:56:58;;;;;;;;;;;-0.50;99.90;;;;;;4938485;29;19958;-78
2022/03/02 08:59:27;;;;;;;;;;;-0.40;99.90;;;;;;4952814;28;19930;-77
2022/03/02 09:01:55;;;;;;;;;;;-0.50;99.90;;;;;;4935094;29;19958;-78
2022/03/02 09:04:22;;;;;;;;;;;-0.50;99.90;;;;;;4945535;28;19937;-78
2022/03/02 09:06:49;;;;;;;;;;;-0.40;99.90;;;;;;4952182;28;20294;-78
2022/03/02 09:09:17;;;;;;;;;;;-0.40;99.90;;;;;;4944124;29;19927;-78
2022/03/02 09:11:44;;;;;;;;;;;-0.40;99.90;;;;;;4949490;28;19926;-77
2022/03/02 09:14:11;;;;;;;;;;;-0.40;99.90;;;;;;4949778;28;20356;-78
2022/03/02 09:16:40;;;;;;;;;;;-0.40;99.90;;;;;;4939276;29;20415;-78
2022/03/02 09:19:07;;;;;;;;;;;-0.30;99.90;;;;;;4957157;28;19949;-78
2022/03/02 09:21:36;;;;;;;;;;;-0.30;99.90;;;;;;4951651;28;19932;-78
2022/03/02 09:24:04;;;;;;;;;;;-0.30;99.90;;;;;;4951376;28;19938;-78
2022/03/02 09:26:32;;;;;;;;;;;-0.30;99.90;;;;;;4952761;28;19949;-78
2022/03/02 09:29:02;;;;;;;;;;;-0.30;99.90;;;;;;4953298;28;20310;-78
2022/03/02 09:31:30;;;;;;;;;;;-0.20;99.90;;;;;;4948033;28;19934;-78
2022/03/02 09:33:58;;;;;;;;;;;-0.20;99.90;;;;;;4947493;28;19933;-78
2022/03/02 09:36:26;;;;;;;;;;;-0.20;99.90;;;;;;4959346;28;19927;-78
2022/03/02 09:38:54;;;;;;;;;;;-0.20;99.90;;;;;;4953351;28;20398;-77
2022/03/02 09:41:27;;;;;;;;;;;-0.10;99.90;;;;;;4955570;28;20304;-78
2022/03/02 09:43:56;;;;;;;;;;;-0.10;99.90;;;;;;4956094;28;19927;-78
2022/03/02 09:46:28;;;;;;;;;;;-0.10;99.90;;;;;;4967381;28;20320;-78
2022/03/02 09:48:59;;;;;;;;;;;0.00;99.90;;;;;;4952485;28;19927;-78
2022/03/02 09:51:28;;;;;;;;;;;0.00;99.90;;;;;;4938991;28;19926;-77
2022/03/02 09:53:55;;;;;;;;;;;0.00;99.90;;;;;;4943618;28;19927;-78
2022/03/02 09:56:23;;;;;;;;;;;0.00;99.90;;;;;;4962425;28;19934;-78
2022/03/02 09:58:51;;;;;;;;;;;0.10;99.90;;;;;;4944261;28;19933;-78
2022/03/02 10:01:21;;;;;;;;;;;0.10;99.90;;;;;;4942286;29;19926;-78
2022/03/02 10:03:50;;;;;;;;;;;0.10;99.90;;;;;;4958984;28;19926;-78
2022/03/02 10:06:18;;;;;;;;;;;0.10;99.90;;;;;;4955859;28;20024;-78
2022/03/02 10:08:48;;;;;;;;;;;0.20;99.90;;;;;;4953933;28;20312;-78
2022/03/02 10:11:16;;;;;;;;;;;0.20;99.90;;;;;;4954129;29;20492;-78
2022/03/02 10:13:43;;;;;;;;;;;0.20;99.90;;;;;;4954691;28;20008;-78
2022/03/02 10:16:10;;;;;;;;;;;0.20;99.90;;;;;;4954147;28;19930;-78
2022/03/02 10:18:38;;;;;;;;;;;0.20;99.90;;;;;;4953615;28;19934;-77
2022/03/02 10:21:05;;;;;;;;;;;0.30;99.90;;;;;;4944357;28;20401;-78
2022/03/02 10:23:40;;;;;;;;;;;0.30;99.90;;;;;;4954982;28;19934;-78
2022/03/02 10:26:12;;;;;;;;;;;0.30;99.90;;;;;;4948685;28;19945;-78
2022/03/02 10:28:44;;;;;;;;;;;0.30;99.90;;;;;;4957251;28;19962;-78
2022/03/02 10:31:26;;;;;;;;;;;0.40;99.90;;;;;;4939029;29;19962;-78
2022/03/02 10:33:53;;;;;;;;;;;0.40;99.90;;;;;;4933693;29;19927;-81
2022/03/02 10:36:21;;;;;;;;;;;0.40;99.90;;;;;;4956073;28;20018;-78
2022/03/02 10:38:49;;;;;;;;;;;0.40;99.90;;;;;;4955631;28;20400;-78
2022/03/02 10:41:19;;;;;;;;;;;0.40;99.90;;;;;;4954865;28;19927;-78
2022/03/02 10:43:49;;;;;;;;;;;0.50;99.90;;;;;;4954276;28;19932;-78
2022/03/02 10:46:20;;;;;;;;;;;0.50;99.90;;;;;;4961346;28;19969;-78
2022/03/02 10:48:50;;;;;;;;;;;0.50;99.90;;;;;;4954873;28;19930;-78
2022/03/02 10:51:18;;;;;;;;;;;0.60;99.90;;;;;;4945665;28;19932;-78
2022/03/02 10:53:47;;;;;;;;;;;0.60;99.90;;;;;;4953297;28;19927;-78
2022/03/02 10:56:17;;;;;;;;;;;0.60;99.90;;;;;;4966838;28;19933;-78
2022/03/02 10:58:47;;;;;;;;;;;0.70;99.90;;;;;;4951258;28;19933;-78
2022/03/02 11:01:14;;;;;;;;;;;0.70;99.90;;;;;;4951824;28;19930;-79
2022/03/02 11:03:41;;;;;;;;;;;0.70;99.90;;;;;;4953554;28;19973;-79
2022/03/02 11:06:08;;;;;;;;;;;0.70;99.90;;;;;;4954328;28;19926;-78
2022/03/02 11:08:36;;;;;;;;;;;0.80;99.90;;;;;;4942432;29;19926;-79
2022/03/02 11:11:04;;;;;;;;;;;0.80;99.90;;;;;;4954232;28;20005;-78
2022/03/02 11:13:31;;;;;;;;;;;0.80;99.90;;;;;;4952763;28;19989;-78
2022/03/02 11:16:01;;;;;;;;;;;0.90;99.90;;;;;;4951522;28;19937;-79
2022/03/02 11:18:35;;;;;;;;;;;0.90;99.90;;;;;;4944369;28;19927;-78
2022/03/02 11:21:03;;;;;;;;;;;1.00;99.90;;;;;;4953709;28;20026;-79
2022/03/02 11:23:32;;;;;;;;;;;1.00;99.90;;;;;;4954150;28;19938;-78
2022/03/02 11:26:04;;;;;;;;;;;1.00;99.90;;;;;;4951263;28;19927;-79
2022/03/02 11:28:32;;;;;;;;;;;1.10;99.90;;;;;;4955529;28;19926;-79
2022/03/02 11:31:02;;;;;;;;;;;1.10;99.90;;;;;;4954963;28;19926;-79
2022/03/02 11:33:30;;;;;;;;;;;1.10;99.90;;;;;;4951035;28;19926;-79
2022/03/02 11:35:59;;;;;;;;;;;1.10;99.90;;;;;;4945650;29;19926;-79
2022/03/02 11:38:29;;;;;;;;;;;1.20;99.90;;;;;;4958559;28;19982;-79
2022/03/02 11:40:56;;;;;;;;;;;1.20;99.90;;;;;;4936689;29;19933;-79
2022/03/02 11:43:25;;;;;;;;;;;1.20;99.90;;;;;;4953976;28;19992;-79
2022/03/02 11:45:56;;;;;;;;;;;1.30;99.90;;;;;;4954396;28;19997;-79
2022/03/02 11:48:25;;;;;;;;;;;1.30;99.90;;;;;;4953520;28;20025;-79
2022/03/02 11:51:02;;;;;;;;;;;1.40;99.90;;;;;;4951329;28;19981;-79
2022/03/02 11:53:30;;;;;;;;;;;1.40;99.90;;;;;;4953456;28;19930;-79
2022/03/02 11:55:57;;;;;;;;;;;1.40;99.90;;;;;;4962299;28;20385;-80
2022/03/02 11:58:24;;;;;;;;;;;1.50;99.90;;;;;;4953768;28;19958;-78
2022/03/02 12:00:51;;;;;;;;;;;1.50;99.90;;;;;;4955232;28;20313;-79
2022/03/02 12:03:18;;;;;;;;;;;1.50;99.90;;;;;;4949262;28;19927;-79
2022/03/02 12:05:48;;;;;;;;;;;1.60;99.90;;;;;;4940837;29;19933;-79
2022/03/02 12:08:16;;;;;;;;;;;1.60;99.90;;;;;;4952719;28;20436;-79
2022/03/02 12:10:52;;;;;;;;;;;1.70;99.90;;;;;;4934927;29;19934;-79
2022/03/02 12:13:20;;;;;;;;;;;1.70;99.90;;;;;;4951861;28;19978;-79
2022/03/02 12:15:47;;;;;;;;;;;1.70;99.90;;;;;;4952811;28;19927;-79
2022/03/02 12:18:15;;;;;;;;;;;1.70;99.90;;;;;;4938537;28;19969;-79
2022/03/02 12:20:47;;;;;;;;;;;1.80;99.90;;;;;;4944851;28;19930;-79
2022/03/02 12:23:20;;;;;;;;;;;1.80;99.90;;;;;;4952814;28;19934;-79
2022/03/02 12:25:47;;;;;;;;;;;1.90;99.90;;;;;;4952193;28;19957;-79
2022/03/02 12:28:15;;;;;;;;;;;1.90;99.90;;;;;;4957276;28;20009;-79
2022/03/02 12:30:42;;;;;;;;;;;1.90;99.90;;;;;;4950697;28;20347;-79
2022/03/02 12:33:09;;;;;;;;;;;1.90;99.90;;;;;;4949851;28;19977;-79
2022/03/02 12:35:37;;;;;;;;;;;2.00;99.90;;;;;;4950441;28;19926;-79
2022/03/02 12:38:07;;;;;;;;;;;2.00;99.90;;;;;;4952821;28;19934;-79
2022/03/02 12:40:39;;;;;;;;;;;2.00;99.90;;;;;;4947653;28;19927;-80
2022/03/02 12:43:08;;;;;;;;;;;2.00;99.90;;;;;;4950629;28;19953;-79
2022/03/02 12:45:36;;;;;;;;;;;2.10;99.90;;;;;;4940790;28;19926;-79
2022/03/02 12:48:03;;;;;;;;;;;2.10;99.90;;;;;;4955240;28;19927;-79
2022/03/02 12:50:32;;;;;;;;;;;2.10;99.90;;;;;;4950382;28;20144;-79
2022/03/02 12:52:59;;;;;;;;;;;2.10;99.90;;;;;;4958133;28;19934;-79
2022/03/02 13:05:55;;;;;;;;;;;2.20;99.90;;;;;;4951093;28;19921;-80
2022/03/02 13:08:28;;;;;;;;;;;2.30;99.90;;;;;;4958021;28;20395;-79
2022/03/02 13:10:55;;;;;;;;;;;2.30;99.90;;;;;;4954271;28;19927;-78
2022/03/02 13:13:33;;;;;;;;;;;2.30;99.90;;;;;;4953513;28;19985;-79
2022/03/02 13:16:14;;;;;;;;;;;2.30;99.90;;;;;;4951165;28;20025;-79
2022/03/02 13:18:41;;;;;;;;;;;2.30;99.90;;;;;;4955449;28;19933;-79
2022/03/02 13:21:17;;;;;;;;;;;2.30;99.90;;;;;;4957282;28;19927;-79
2022/03/02 13:24:04;;;;;;;;;;;2.40;99.90;;;;;;4956393;28;19935;-79
2022/03/02 13:26:32;;;;;;;;;;;2.40;99.90;;;;;;4945507;29;19926;-79
2022/03/02 13:29:00;;;;;;;;;;;2.40;99.90;;;;;;4956217;29;19934;-79
2022/03/02 13:31:27;;;;;;;;;;;2.40;99.90;;;;;;4942033;28;19934;-79
2022/03/02 13:34:06;;;;;;;;;;;2.40;99.90;;;;;;4943509;28;19930;-78
2022/03/02 13:36:35;;;;;;;;;;;2.40;99.90;;;;;;4955912;28;19978;-79
2022/03/02 13:39:07;;;;;;;;;;;2.40;99.90;;;;;;4957758;28;19938;-80
2022/03/02 13:41:55;;;;;;;;;;;2.40;99.90;;;;;;4959879;28;20392;-79
2022/03/02 13:44:27;;;;;;;;;;;2.40;99.90;;;;;;4932826;29;19930;-79
2022/03/02 13:47:13;;;;;;;;;;;2.50;99.90;;;;;;4951225;29;19927;-79
2022/03/02 13:49:58;;;;;;;;;;;2.50;99.90;;;;;;4955841;28;19926;-79
2022/03/02 13:52:41;;;;;;;;;;;2.50;99.90;;;;;;4948272;28;20014;-79
2022/03/02 13:55:23;;;;;;;;;;;2.50;99.90;;;;;;4943662;29;19934;-80
2022/03/02 13:57:51;;;;;;;;;;;2.50;99.90;;;;;;4956639;28;19927;-79
2022/03/02 14:00:28;;;;;;;;;;;2.50;99.90;;;;;;4944979;29;19926;-79
2022/03/02 14:02:56;;;;;;;;;;;2.50;99.90;;;;;;4940207;29;20002;-79
2022/03/02 14:05:24;;;;;;;;;;;2.50;99.90;;;;;;4961209;28;19937;-79
2022/03/02 14:07:53;;;;;;;;;;;2.60;99.90;;;;;;4958729;28;19926;-79
2022/03/02 14:10:20;;;;;;;;;;;2.60;99.90;;;;;;4951746;28;19938;-79
2022/03/02 14:12:51;;;;;;;;;;;2.60;99.90;;;;;;4947184;28;19945;-78
2022/03/02 14:15:18;;;;;;;;;;;2.60;99.90;;;;;;4944690;28;19961;-79
2022/03/02 14:17:45;;;;;;;;;;;2.60;99.90;;;;;;4939711;28;19927;-79
2022/03/02 14:20:13;;;;;;;;;;;2.60;99.90;;;;;;4953606;28;19927;-79
2022/03/02 14:22:40;;;;;;;;;;;2.60;99.90;;;;;;4954887;28;19926;-80
2022/03/02 14:25:12;;;;;;;;;;;2.60;99.90;;;;;;4949345;28;19937;-79
2022/03/02 14:27:39;;;;;;;;;;;2.60;99.90;;;;;;4937388;29;19926;-79
2022/03/02 14:30:12;;;;;;;;;;;2.60;99.90;;;;;;4956573;28;20033;-79
2022/03/02 14:32:41;;;;;;;;;;;2.60;99.90;;;;;;4956779;28;19926;-79
2022/03/02 14:35:08;;;;;;;;;;;2.70;99.90;;;;;;4953806;28;20025;-79
2022/03/02 14:37:39;;;;;;;;;;;2.70;99.90;;;;;;4941191;29;19930;-79
2022/03/02 14:40:08;;;;;;;;;;;2.70;99.90;;;;;;4953829;28;19926;-79